Terminal Aerodrome Forecast
Issued by NWS Sterling, VA

Current Version | Previous Version | Text Only | Print | Product List | Glossary Off
Versions: 1 2 3 4 5 6 7 8 9 10 11 12 13 14 15 16 17 18 19 20 21 22 23 24 25

052
FTUS41 KLWX 221452 AAA
TAFIAD
TAF AMD
KIAD 221452Z 2215/2318 28005KT P6SM BKN070
     FM222000 22007KT P6SM SCT050 BKN250
     FM230900 22007KT 5SM SHRA SCT015 OVC070
     FM231500 21010KT P6SM SCT015 OVC040=

USA.gov is the U.S. government's official web portal to all federal, state and local government web resources and services.